Time;durP1;ratioP1;P1;durP2;ratioP2;P2;SDS_P1;SDS_P2;PMS_P1;PMS_P2;Temp;Humidity;BMP_temperature;BMP_pressure;BME280_temperature;BME280_humidity;BME280_pressure;Samples;Min_cycle;Max_cycle;Signal;HPM_P1;HPM_P2
2021/07/21 00:00:36;;;;;;;4.35;3.95;;;;;;;;;;5023882;28;20241;-49
2021/07/21 00:03:03;;;;;;;4.25;3.85;;;;;;;;;;5034731;28;20184;-49
2021/07/21 00:05:29;;;;;;;4.60;4.00;;;;;;;;;;5034100;28;20187;-49
2021/07/21 00:07:55;;;;;;;5.30;3.67;;;;;;;;;;5033863;28;20514;-49
2021/07/21 00:10:22;;;;;;;4.35;3.92;;;;;;;;;;5034091;28;20196;-50
2021/07/21 00:15:36;;;;;;;4.72;4.18;;;;;;;;;;5033633;28;20249;-49
2021/07/21 00:18:16;;;;;;;5.85;3.78;;;;;;;;;;5033645;28;20172;-49
2021/07/21 00:20:44;;;;;;;4.88;3.60;;;;;;;;;;5034405;28;20174;-49
2021/07/21 00:23:10;;;;;;;5.65;4.10;;;;;;;;;;5027393;28;20176;-49
2021/07/21 00:25:36;;;;;;;7.13;3.90;;;;;;;;;;5020193;28;20192;-49
2021/07/21 00:28:02;;;;;;;4.30;3.90;;;;;;;;;;5034044;28;20191;-49
2021/07/21 00:30:28;;;;;;;5.05;4.22;;;;;;;;;;5033961;28;20617;-49
2021/07/21 00:32:55;;;;;;;4.55;3.70;;;;;;;;;;5023416;28;20180;-49
2021/07/21 00:35:21;;;;;;;6.13;4.38;;;;;;;;;;5031837;28;20199;-49
2021/07/21 00:37:47;;;;;;;4.50;4.10;;;;;;;;;;5032383;28;20510;-49
2021/07/21 00:40:14;;;;;;;4.63;4.07;;;;;;;;;;5034142;28;20164;-49
2021/07/21 00:42:40;;;;;;;4.30;3.88;;;;;;;;;;5033891;28;20176;-49
2021/07/21 00:45:07;;;;;;;4.90;3.30;;;;;;;;;;5033791;28;20545;-49
2021/07/21 00:47:34;;;;;;;4.72;4.10;;;;;;;;;;5033567;28;20188;-49
2021/07/21 00:49:59;;;;;;;4.72;4.05;;;;;;;;;;5034253;28;20168;-49
2021/07/21 00:52:25;;;;;;;4.35;3.63;;;;;;;;;;5030524;28;20202;-49
2021/07/21 00:54:52;;;;;;;4.28;3.63;;;;;;;;;;5029854;28;20207;-49
2021/07/21 00:57:18;;;;;;;6.90;4.00;;;;;;;;;;5022432;28;20180;-49
2021/07/21 00:59:44;;;;;;;4.55;3.90;;;;;;;;;;5034128;28;20218;-49
2021/07/21 01:02:11;;;;;;;4.00;3.65;;;;;;;;;;5033779;28;20200;-49
2021/07/21 01:04:37;;;;;;;4.13;3.80;;;;;;;;;;5033715;28;20194;-49
2021/07/21 01:07:07;;;;;;;4.35;3.95;;;;;;;;;;5020091;28;20263;-49
2021/07/21 01:09:35;;;;;;;5.53;4.00;;;;;;;;;;5014333;28;20219;-49
2021/07/21 01:12:04;;;;;;;5.45;4.00;;;;;;;;;;5020277;28;20443;-49
2021/07/21 01:14:38;;;;;;;5.13;3.65;;;;;;;;;;5024351;28;20196;-49
2021/07/21 01:17:06;;;;;;;3.83;3.42;;;;;;;;;;5033188;28;20215;-49
2021/07/21 01:19:41;;;;;;;4.45;4.05;;;;;;;;;;5033720;28;20440;-48
2021/07/21 01:22:15;;;;;;;3.63;3.33;;;;;;;;;;5024146;28;20207;-49
2021/07/21 01:24:52;;;;;;;5.18;3.72;;;;;;;;;;5033560;28;20184;-49
2021/07/21 01:27:27;;;;;;;4.20;3.80;;;;;;;;;;5033634;28;20160;-49
2021/07/21 01:29:56;;;;;;;5.32;3.70;;;;;;;;;;5033765;28;20559;-49
2021/07/21 01:32:24;;;;;;;5.28;3.72;;;;;;;;;;5032722;28;20194;-49
2021/07/21 01:34:52;;;;;;;6.90;3.70;;;;;;;;;;5034084;28;20206;-49
2021/07/21 01:37:19;;;;;;;4.28;3.90;;;;;;;;;;5037183;28;20167;-49
2021/07/21 01:39:46;;;;;;;4.00;3.70;;;;;;;;;;5037578;28;20176;-49
2021/07/21 01:42:15;;;;;;;3.85;3.55;;;;;;;;;;5033315;28;20206;-49
2021/07/21 01:44:43;;;;;;;5.43;4.03;;;;;;;;;;5036772;28;20212;-49
2021/07/21 01:47:09;;;;;;;4.35;3.92;;;;;;;;;;5035989;28;20218;-49
2021/07/21 01:49:38;;;;;;;4.35;3.88;;;;;;;;;;5028679;28;20552;-49
2021/07/21 01:52:05;;;;;;;4.82;3.88;;;;;;;;;;5021757;28;20560;-49
2021/07/21 01:54:32;;;;;;;4.20;3.80;;;;;;;;;;5027049;28;20190;-49
2021/07/21 01:56:59;;;;;;;4.40;4.00;;;;;;;;;;5026925;28;20180;-49
2021/07/21 01:59:25;;;;;;;4.20;3.80;;;;;;;;;;5016960;28;20173;-49
2021/07/21 02:01:52;;;;;;;3.83;3.53;;;;;;;;;;5033282;28;20527;-49
2021/07/21 02:04:20;;;;;;;4.13;3.70;;;;;;;;;;5036615;28;20187;-49
2021/07/21 02:06:46;;;;;;;4.35;3.95;;;;;;;;;;5036439;28;20555;-49
2021/07/21 02:09:12;;;;;;;3.88;3.58;;;;;;;;;;5029488;28;20188;-49
2021/07/21 02:11:40;;;;;;;5.57;3.85;;;;;;;;;;5036702;28;20550;-49
2021/07/21 02:14:07;;;;;;;4.68;3.45;;;;;;;;;;5036211;28;20196;-49
2021/07/21 02:16:35;;;;;;;4.03;3.63;;;;;;;;;;5034991;28;20203;-50
2021/07/21 02:19:03;;;;;;;3.58;3.28;;;;;;;;;;5036711;28;20176;-49
2021/07/21 02:21:29;;;;;;;3.72;3.35;;;;;;;;;;5032356;28;20428;-49
2021/07/21 02:23:55;;;;;;;5.63;3.30;;;;;;;;;;5036244;28;20180;-49
2021/07/21 02:26:22;;;;;;;4.30;3.60;;;;;;;;;;5035780;28;20187;-49
2021/07/21 02:28:48;;;;;;;4.03;3.42;;;;;;;;;;5036284;28;20180;-49
2021/07/21 02:31:17;;;;;;;3.78;3.47;;;;;;;;;;5036282;28;20184;-49
2021/07/21 02:33:43;;;;;;;4.90;3.72;;;;;;;;;;5027852;28;20187;-49
2021/07/21 02:36:09;;;;;;;5.45;3.55;;;;;;;;;;5035191;28;20219;-49
2021/07/21 02:38:35;;;;;;;4.43;3.45;;;;;;;;;;5029654;28;20180;-49
2021/07/21 02:41:01;;;;;;;4.18;3.70;;;;;;;;;;5025236;28;20468;-49
2021/07/21 02:43:27;;;;;;;4.22;3.45;;;;;;;;;;5035866;28;20564;-49
2021/07/21 02:45:54;;;;;;;5.43;3.80;;;;;;;;;;5035001;28;20194;-49
2021/07/21 02:48:20;;;;;;;5.07;3.30;;;;;;;;;;5035953;28;20207;-49
2021/07/21 02:50:48;;;;;;;3.42;3.13;;;;;;;;;;5036052;28;20180;-48
2021/07/21 02:53:16;;;;;;;4.20;3.35;;;;;;;;;;5035028;28;20189;-49
2021/07/21 02:55:45;;;;;;;3.90;3.50;;;;;;;;;;5035650;28;20290;-49
2021/07/21 02:58:11;;;;;;;5.97;3.72;;;;;;;;;;5035846;28;20172;-49
2021/07/21 03:00:38;;;;;;;4.47;3.53;;;;;;;;;;5035222;28;20196;-49
2021/07/21 03:03:06;;;;;;;3.85;3.55;;;;;;;;;;5035583;28;20190;-49
2021/07/21 03:05:33;;;;;;;4.05;3.33;;;;;;;;;;5031824;28;20180;-49
2021/07/21 03:07:59;;;;;;;4.13;3.72;;;;;;;;;;5015244;28;20164;-49
2021/07/21 03:10:26;;;;;;;3.72;3.40;;;;;;;;;;5015902;28;20264;-49
2021/07/21 03:12:56;;;;;;;4.90;3.20;;;;;;;;;;5018490;28;20194;-49
2021/07/21 03:15:23;;;;;;;3.60;3.30;;;;;;;;;;5035154;28;20214;-48
2021/07/21 03:17:49;;;;;;;3.25;2.95;;;;;;;;;;5027075;28;20456;-49
2021/07/21 03:20:16;;;;;;;5.90;3.35;;;;;;;;;;5019778;28;20284;-48
2021/07/21 03:22:43;;;;;;;5.95;2.92;;;;;;;;;;5027892;28;20177;-48
2021/07/21 03:25:09;;;;;;;4.32;3.20;;;;;;;;;;5035392;28;20266;-48
2021/07/21 03:27:36;;;;;;;4.60;3.53;;;;;;;;;;5034916;28;20168;-48
2021/07/21 03:30:05;;;;;;;3.63;3.00;;;;;;;;;;5035377;28;20439;-49
2021/07/21 03:32:31;;;;;;;3.47;3.17;;;;;;;;;;5028708;28;20462;-49
2021/07/21 03:34:57;;;;;;;3.38;3.08;;;;;;;;;;5022982;28;20239;-48
2021/07/21 03:37:25;;;;;;;3.35;3.00;;;;;;;;;;5026833;28;20258;-48
2021/07/21 03:39:54;;;;;;;4.13;3.33;;;;;;;;;;5017620;28;20496;-48
2021/07/21 03:42:21;;;;;;;3.90;3.42;;;;;;;;;;5034413;28;20180;-49
2021/07/21 03:44:47;;;;;;;3.50;3.00;;;;;;;;;;5033855;28;20172;-48
2021/07/21 03:47:14;;;;;;;3.30;3.00;;;;;;;;;;5034128;28;20172;-49
2021/07/21 03:49:41;;;;;;;4.38;3.03;;;;;;;;;;5024744;28;20483;-48
2021/07/21 03:52:09;;;;;;;11.10;4.18;;;;;;;;;;5035001;28;20188;-49
2021/07/21 03:54:35;;;;;;;15.70;5.40;;;;;;;;;;5033614;28;20167;-48
2021/07/21 03:57:02;;;;;;;9.98;4.80;;;;;;;;;;5033309;28;20195;-48
2021/07/21 03:59:28;;;;;;;10.45;4.25;;;;;;;;;;5034374;28;20559;-48
2021/07/21 04:01:54;;;;;;;10.93;4.00;;;;;;;;;;5034345;28;20203;-48
2021/07/21 04:04:21;;;;;;;13.13;4.25;;;;;;;;;;5033687;28;20295;-48
2021/07/21 04:06:48;;;;;;;12.07;4.80;;;;;;;;;;5034360;28;20184;-48
2021/07/21 04:09:16;;;;;;;10.55;4.45;;;;;;;;;;5034754;28;20214;-48
2021/07/21 04:11:42;;;;;;;13.98;4.95;;;;;;;;;;5034710;28;20186;-48
2021/07/21 04:14:09;;;;;;;11.63;5.15;;;;;;;;;;5034099;28;20191;-48
2021/07/21 04:16:36;;;;;;;17.45;5.93;;;;;;;;;;5033592;28;20278;-48
2021/07/21 04:19:03;;;;;;;12.55;5.00;;;;;;;;;;5033945;28;20188;-49
2021/07/21 04:21:30;;;;;;;11.65;5.20;;;;;;;;;;5034577;28;20453;-48
2021/07/21 04:23:56;;;;;;;14.75;5.65;;;;;;;;;;5034047;28;20187;-48
2021/07/21 04:26:24;;;;;;;13.90;4.78;;;;;;;;;;5034091;28;20180;-48
2021/07/21 04:28:51;;;;;;;19.33;5.07;;;;;;;;;;5034275;28;20263;-49
2021/07/21 04:31:25;;;;;;;13.95;5.40;;;;;;;;;;5034092;28;20183;-48
2021/07/21 04:33:52;;;;;;;13.95;5.35;;;;;;;;;;5032270;28;20187;-48
2021/07/21 04:36:18;;;;;;;12.35;5.00;;;;;;;;;;5032925;28;20211;-48
2021/07/21 04:38:44;;;;;;;17.38;5.10;;;;;;;;;;5034157;28;20175;-48
2021/07/21 04:41:10;;;;;;;16.35;5.50;;;;;;;;;;5034490;28;20179;-48
2021/07/21 04:43:36;;;;;;;10.30;4.85;;;;;;;;;;5033766;28;20507;-48
2021/07/21 04:46:02;;;;;;;10.93;5.70;;;;;;;;;;5033054;28;20184;-48
2021/07/21 04:48:28;;;;;;;16.88;5.90;;;;;;;;;;5033915;28;20199;-48
2021/07/21 04:50:55;;;;;;;12.00;4.90;;;;;;;;;;5034131;28;20207;-48
2021/07/21 04:53:21;;;;;;;14.50;4.32;;;;;;;;;;5034166;28;20184;-48
2021/07/21 04:55:48;;;;;;;7.82;4.25;;;;;;;;;;5033353;28;20203;-48
2021/07/21 04:58:15;;;;;;;6.32;3.85;;;;;;;;;;5034033;28;20172;-48
2021/07/21 05:00:41;;;;;;;5.90;3.60;;;;;;;;;;5033429;28;20206;-48
2021/07/21 05:03:08;;;;;;;7.45;3.83;;;;;;;;;;5033388;28;20180;-48
2021/07/21 05:05:36;;;;;;;4.97;3.30;;;;;;;;;;5033256;28;20552;-48
2021/07/21 05:08:01;;;;;;;5.35;3.33;;;;;;;;;;5033994;28;20186;-48
2021/07/21 05:10:28;;;;;;;5.05;3.17;;;;;;;;;;5036852;28;20440;-48
2021/07/21 05:12:54;;;;;;;3.97;3.33;;;;;;;;;;5036737;28;20172;-48
2021/07/21 05:15:20;;;;;;;4.18;3.45;;;;;;;;;;5037323;28;20218;-48
2021/07/21 05:17:46;;;;;;;4.28;3.55;;;;;;;;;;5037077;28;20458;-48
2021/07/21 05:20:12;;;;;;;3.78;3.42;;;;;;;;;;5037736;28;20172;-47
2021/07/21 05:22:45;;;;;;;6.07;3.30;;;;;;;;;;5026372;28;20183;-47
2021/07/21 05:25:11;;;;;;;6.07;3.33;;;;;;;;;;5036976;28;20164;-48
2021/07/21 05:27:37;;;;;;;7.53;3.60;;;;;;;;;;5035335;28;20194;-47
2021/07/21 05:30:04;;;;;;;7.75;3.60;;;;;;;;;;5037240;28;20176;-48
2021/07/21 05:32:30;;;;;;;3.28;2.90;;;;;;;;;;5033916;28;20188;-48
2021/07/21 05:34:56;;;;;;;3.92;3.13;;;;;;;;;;5036876;28;20212;-48
2021/07/21 05:37:22;;;;;;;3.50;3.20;;;;;;;;;;5036080;28;20184;-48
2021/07/21 05:39:48;;;;;;;5.25;3.13;;;;;;;;;;5036594;28;20424;-48
2021/07/21 05:42:14;;;;;;;5.45;2.92;;;;;;;;;;5035382;28;20217;-47
2021/07/21 05:44:40;;;;;;;17.38;3.78;;;;;;;;;;5035857;28;20172;-48
2021/07/21 05:47:06;;;;;;;13.25;3.60;;;;;;;;;;5034723;28;20183;-47
2021/07/21 05:49:32;;;;;;;9.18;3.70;;;;;;;;;;5037215;28;20214;-47
2021/07/21 05:51:58;;;;;;;7.00;3.80;;;;;;;;;;5036732;28;20208;-47
2021/07/21 05:54:24;;;;;;;6.18;3.38;;;;;;;;;;5036013;28;20570;-47
2021/07/21 05:56:50;;;;;;;5.75;3.58;;;;;;;;;;5036101;28;20200;-47
2021/07/21 05:59:17;;;;;;;6.28;3.30;;;;;;;;;;5036249;28;20184;-47
2021/07/21 06:01:43;;;;;;;4.53;3.53;;;;;;;;;;5025294;28;20303;-47
2021/07/21 06:04:10;;;;;;;9.20;3.50;;;;;;;;;;5015761;28;20215;-47
2021/07/21 06:06:36;;;;;;;10.85;3.45;;;;;;;;;;5015097;28;20169;-47
2021/07/21 06:09:03;;;;;;;6.25;3.33;;;;;;;;;;5015488;28;20444;-47
2021/07/21 06:11:29;;;;;;;3.90;3.03;;;;;;;;;;5014956;28;20540;-47
2021/07/21 06:14:00;;;;;;;5.85;3.75;;;;;;;;;;5015091;28;20191;-47
2021/07/21 06:16:27;;;;;;;4.95;3.30;;;;;;;;;;5014840;28;20236;-47
2021/07/21 06:18:54;;;;;;;4.22;3.38;;;;;;;;;;5016640;28;20545;-47
2021/07/21 06:21:21;;;;;;;5.22;3.35;;;;;;;;;;5016429;28;20161;-47
2021/07/21 06:23:47;;;;;;;9.50;4.35;;;;;;;;;;5016560;28;20248;-47
2021/07/21 06:26:14;;;;;;;6.68;3.47;;;;;;;;;;5016470;28;20183;-47
2021/07/21 06:28:40;;;;;;;8.30;3.97;;;;;;;;;;5016612;28;20169;-47
2021/07/21 06:31:06;;;;;;;5.15;3.88;;;;;;;;;;5016661;28;20219;-47
2021/07/21 06:33:32;;;;;;;4.10;3.50;;;;;;;;;;5030569;28;20244;-47
2021/07/21 06:35:58;;;;;;;5.13;3.63;;;;;;;;;;5035867;28;20195;-47
2021/07/21 06:38:24;;;;;;;5.00;3.47;;;;;;;;;;5035903;28;20168;-47
2021/07/21 06:40:51;;;;;;;7.40;3.65;;;;;;;;;;5036246;28;20172;-47
2021/07/21 06:43:17;;;;;;;8.73;3.92;;;;;;;;;;5036255;28;20164;-47
2021/07/21 06:45:43;;;;;;;5.55;3.47;;;;;;;;;;5036100;28;20176;-47
2021/07/21 06:48:09;;;;;;;5.60;3.72;;;;;;;;;;5035749;28;20172;-47
2021/07/21 06:50:35;;;;;;;4.65;3.50;;;;;;;;;;5035973;28;20298;-47
2021/07/21 06:53:02;;;;;;;4.65;3.67;;;;;;;;;;5035613;28;20179;-47
2021/07/21 06:55:27;;;;;;;3.67;3.38;;;;;;;;;;5035952;28;20214;-47
2021/07/21 06:57:54;;;;;;;6.05;3.70;;;;;;;;;;5035391;28;20547;-47
2021/07/21 07:00:19;;;;;;;6.72;3.25;;;;;;;;;;5035759;28;20160;-47
2021/07/21 07:02:45;;;;;;;4.57;3.50;;;;;;;;;;5035713;28;20274;-47
2021/07/21 07:05:11;;;;;;;5.75;3.63;;;;;;;;;;5035645;28;20200;-47
2021/07/21 07:07:37;;;;;;;5.38;3.63;;;;;;;;;;5034242;28;20170;-47
2021/07/21 07:10:04;;;;;;;3.47;3.08;;;;;;;;;;5034999;28;20179;-47
2021/07/21 07:12:30;;;;;;;3.92;3.42;;;;;;;;;;5033847;28;20215;-47
2021/07/21 07:14:56;;;;;;;4.10;3.60;;;;;;;;;;5033218;28;20191;-47
2021/07/21 07:17:24;;;;;;;3.63;3.33;;;;;;;;;;5033429;28;20566;-47
2021/07/21 07:19:50;;;;;;;5.80;3.45;;;;;;;;;;5033782;28;20168;-47
2021/07/21 07:22:16;;;;;;;4.28;3.67;;;;;;;;;;5033415;28;20237;-47
2021/07/21 07:24:42;;;;;;;4.32;3.63;;;;;;;;;;5033552;28;20485;-47
2021/07/21 07:27:08;;;;;;;5.40;3.35;;;;;;;;;;5033578;28;20218;-47
2021/07/21 07:29:35;;;;;;;6.75;3.50;;;;;;;;;;5035083;28;20558;-47
2021/07/21 07:32:01;;;;;;;7.22;3.67;;;;;;;;;;5034264;28;20218;-47
2021/07/21 07:34:26;;;;;;;4.38;3.70;;;;;;;;;;5035216;28;20215;-47
2021/07/21 07:36:53;;;;;;;5.78;3.78;;;;;;;;;;5034340;28;20237;-47
2021/07/21 07:39:21;;;;;;;3.53;3.20;;;;;;;;;;5035252;28;20172;-47
2021/07/21 07:41:47;;;;;;;3.60;3.08;;;;;;;;;;5035011;28;20168;-47
2021/07/21 07:44:13;;;;;;;5.22;3.65;;;;;;;;;;5035061;28;20191;-47
2021/07/21 07:46:39;;;;;;;3.92;3.38;;;;;;;;;;5034361;28;20168;-47
2021/07/21 07:49:05;;;;;;;6.47;3.60;;;;;;;;;;5034925;28;20179;-47
2021/07/21 07:51:33;;;;;;;4.50;3.42;;;;;;;;;;5034714;28;20183;-47
2021/07/21 07:53:59;;;;;;;4.95;3.60;;;;;;;;;;5034672;28;20187;-47
2021/07/21 07:56:25;;;;;;;3.97;3.58;;;;;;;;;;5033978;28;20231;-47
2021/07/21 07:58:52;;;;;;;5.55;3.40;;;;;;;;;;5034741;28;20179;-47
2021/07/21 08:01:18;;;;;;;3.90;3.50;;;;;;;;;;5034516;28;20188;-47
2021/07/21 08:03:44;;;;;;;5.85;3.20;;;;;;;;;;5034471;28;20222;-47
2021/07/21 08:06:10;;;;;;;5.45;3.40;;;;;;;;;;5033798;28;20171;-47
2021/07/21 08:08:36;;;;;;;4.35;3.20;;;;;;;;;;5034127;28;20171;-47
2021/07/21 08:11:04;;;;;;;4.43;3.03;;;;;;;;;;5034246;28;20172;-47
2021/07/21 08:13:30;;;;;;;4.00;3.33;;;;;;;;;;5033851;28;20198;-47
2021/07/21 08:15:56;;;;;;;3.88;3.20;;;;;;;;;;5033081;28;20207;-47
2021/07/21 08:18:22;;;;;;;3.80;3.42;;;;;;;;;;5034065;28;20259;-47
2021/07/21 08:20:48;;;;;;;5.88;3.50;;;;;;;;;;5033134;28;20623;-47
2021/07/21 08:23:15;;;;;;;5.10;3.53;;;;;;;;;;5034221;28;20223;-47
2021/07/21 08:25:41;;;;;;;5.68;3.10;;;;;;;;;;5033916;28;20267;-47
2021/07/21 08:28:07;;;;;;;6.95;3.38;;;;;;;;;;5033570;28;20183;-47
2021/07/21 08:30:33;;;;;;;6.25;3.47;;;;;;;;;;5034127;28;20175;-47
2021/07/21 08:33:00;;;;;;;4.75;3.58;;;;;;;;;;5033695;28;20490;-47
2021/07/21 08:35:28;;;;;;;4.22;3.50;;;;;;;;;;5033581;28;20234;-47
2021/07/21 08:37:54;;;;;;;5.18;3.75;;;;;;;;;;5013713;28;20221;-47
2021/07/21 08:40:22;;;;;;;4.20;3.58;;;;;;;;;;5029789;28;20239;-47
2021/07/21 08:42:48;;;;;;;4.50;3.20;;;;;;;;;;5034552;28;20207;-47
2021/07/21 08:45:14;;;;;;;3.55;3.22;;;;;;;;;;5037415;28;20582;-47
2021/07/21 08:47:40;;;;;;;3.97;3.58;;;;;;;;;;5037311;28;20179;-47
2021/07/21 08:50:07;;;;;;;6.15;3.35;;;;;;;;;;5037894;28;20179;-47
2021/07/21 08:52:34;;;;;;;3.83;3.42;;;;;;;;;;5038182;28;20176;-47
2021/07/21 08:55:01;;;;;;;3.75;2.83;;;;;;;;;;5036824;28;20176;-47
2021/07/21 08:57:32;;;;;;;4.32;3.55;;;;;;;;;;5035936;28;20186;-47
2021/07/21 08:59:59;;;;;;;4.55;3.08;;;;;;;;;;5036582;28;20167;-47
2021/07/21 09:02:26;;;;;;;5.75;3.20;;;;;;;;;;5037039;28;20257;-47
2021/07/21 09:04:52;;;;;;;3.63;3.20;;;;;;;;;;5037307;28;20471;-47
2021/07/21 09:07:18;;;;;;;4.38;3.38;;;;;;;;;;5036907;28;20160;-47
2021/07/21 09:09:44;;;;;;;4.15;3.13;;;;;;;;;;5037161;28;20218;-47
2021/07/21 09:12:11;;;;;;;4.15;2.85;;;;;;;;;;5037887;28;20178;-47
2021/07/21 09:14:40;;;;;;;3.92;3.42;;;;;;;;;;5037622;28;20211;-47
2021/07/21 09:17:13;;;;;;;4.18;3.30;;;;;;;;;;5037401;28;20230;-47
2021/07/21 09:19:44;;;;;;;4.45;3.38;;;;;;;;;;5037498;28;20168;-47
2021/07/21 09:22:23;;;;;;;5.88;3.55;;;;;;;;;;5037795;28;20234;-47
2021/07/21 09:25:08;;;;;;;3.50;3.20;;;;;;;;;;5037899;28;20172;-47
2021/07/21 09:27:34;;;;;;;3.95;3.10;;;;;;;;;;5037326;28;20183;-47
2021/07/21 09:30:00;;;;;;;4.90;2.90;;;;;;;;;;5038148;28;20547;-47
2021/07/21 09:32:26;;;;;;;4.25;3.05;;;;;;;;;;5037489;28;20289;-47
2021/07/21 09:34:52;;;;;;;4.80;2.92;;;;;;;;;;5037537;28;20183;-47
2021/07/21 09:37:20;;;;;;;3.67;3.05;;;;;;;;;;5036872;28;20176;-47
2021/07/21 09:39:50;;;;;;;7.10;3.50;;;;;;;;;;5037254;28;20172;-47
2021/07/21 09:42:17;;;;;;;6.10;2.97;;;;;;;;;;5028530;28;20164;-47
2021/07/21 09:44:43;;;;;;;3.28;2.97;;;;;;;;;;5022492;28;20189;-47
2021/07/21 09:47:09;;;;;;;3.42;2.85;;;;;;;;;;5019440;28;20191;-47
2021/07/21 09:49:35;;;;;;;3.47;3.00;;;;;;;;;;5017588;28;20251;-47
2021/07/21 09:52:14;;;;;;;4.50;3.35;;;;;;;;;;5020133;28;20181;-47
2021/07/21 09:54:40;;;;;;;6.18;3.40;;;;;;;;;;5029997;28;20453;-47
2021/07/21 09:57:13;;;;;;;4.43;3.38;;;;;;;;;;5033003;28;20217;-47
2021/07/21 09:59:39;;;;;;;5.28;3.50;;;;;;;;;;5032984;28;20195;-47
2021/07/21 10:02:20;;;;;;;3.75;3.38;;;;;;;;;;5036105;28;20179;-47
2021/07/21 10:04:48;;;;;;;5.28;3.13;;;;;;;;;;5035521;28;20172;-46
2021/07/21 10:10:09;;;;;;;3.92;3.55;;;;;;;;;;5016710;28;20199;-47
2021/07/21 10:12:35;;;;;;;4.53;3.58;;;;;;;;;;5033665;28;20191;-48
2021/07/21 10:15:01;;;;;;;5.70;3.45;;;;;;;;;;5026540;28;20192;-47
2021/07/21 10:17:27;;;;;;;4.75;4.32;;;;;;;;;;5030467;28;20183;-47
2021/07/21 10:19:54;;;;;;;4.88;4.00;;;;;;;;;;5036165;28;20179;-47
2021/07/21 10:22:20;;;;;;;6.60;4.10;;;;;;;;;;5036573;28;20180;-47
2021/07/21 10:24:46;;;;;;;4.95;4.10;;;;;;;;;;5036586;28;20222;-47
2021/07/21 10:27:13;;;;;;;6.38;4.45;;;;;;;;;;5035999;28;20194;-47
2021/07/21 10:29:39;;;;;;;7.72;4.20;;;;;;;;;;5036211;28;20176;-47
2021/07/21 10:32:05;;;;;;;7.00;4.40;;;;;;;;;;5036585;28;20172;-47
2021/07/21 10:34:32;;;;;;;6.13;4.40;;;;;;;;;;5036016;28;20184;-47
2021/07/21 10:36:58;;;;;;;5.15;4.22;;;;;;;;;;5035935;28;20203;-47
2021/07/21 10:39:34;;;;;;;6.97;4.60;;;;;;;;;;5035894;28;20507;-47
2021/07/21 10:42:02;;;;;;;4.60;3.90;;;;;;;;;;5036316;28;20254;-48
2021/07/21 10:44:28;;;;;;;5.82;4.22;;;;;;;;;;5036072;28;20171;-47
2021/07/21 10:46:54;;;;;;;5.10;4.00;;;;;;;;;;5035491;28;20198;-47
2021/07/21 10:49:34;;;;;;;6.22;4.10;;;;;;;;;;5035557;28;20575;-47
2021/07/21 11:00:25;;;;;;;4.05;3.65;;;;;;;;;;5035762;28;20662;-47
2021/07/21 11:02:52;;;;;;;5.28;4.20;;;;;;;;;;5035815;28;20172;-47
2021/07/21 11:05:27;;;;;;;7.93;4.43;;;;;;;;;;5035285;28;20222;-47
2021/07/21 11:07:54;;;;;;;4.57;3.90;;;;;;;;;;5035069;28;20179;-48
2021/07/21 11:10:30;;;;;;;4.80;4.30;;;;;;;;;;5035432;28;20172;-47
2021/07/21 11:12:56;;;;;;;6.55;4.18;;;;;;;;;;5035345;28;20172;-48
2021/07/21 11:15:33;;;;;;;4.53;3.95;;;;;;;;;;5035589;28;20191;-47
2021/07/21 11:18:17;;;;;;;5.05;3.97;;;;;;;;;;5034942;28;20454;-47
2021/07/21 11:21:02;;;;;;;6.30;4.20;;;;;;;;;;5035167;28;20179;-47
2021/07/21 11:23:41;;;;;;;5.00;3.85;;;;;;;;;;5035484;28;20172;-47
2021/07/21 11:26:26;;;;;;;5.60;3.78;;;;;;;;;;5033228;28;20816;-47
2021/07/21 11:28:52;;;;;;;5.78;3.80;;;;;;;;;;5021306;28;20234;-48
2021/07/21 11:31:18;;;;;;;5.07;4.13;;;;;;;;;;5024651;28;20184;-47
2021/07/21 11:33:54;;;;;;;5.35;3.72;;;;;;;;;;5030428;28;20191;-47
2021/07/21 11:36:39;;;;;;;8.20;3.90;;;;;;;;;;5034406;28;20192;-48
2021/07/21 11:39:06;;;;;;;10.52;4.30;;;;;;;;;;5034773;28;20206;-48
2021/07/21 11:41:47;;;;;;;6.10;4.10;;;;;;;;;;5034708;28;20179;-47
2021/07/21 11:44:27;;;;;;;5.93;4.00;;;;;;;;;;5015499;28;20177;-47
2021/07/21 11:46:54;;;;;;;4.75;3.92;;;;;;;;;;5016169;28;20172;-47
2021/07/21 11:49:23;;;;;;;7.10;4.00;;;;;;;;;;5032385;28;20230;-47
2021/07/21 11:51:57;;;;;;;4.18;3.63;;;;;;;;;;5030782;28;20179;-47
2021/07/21 11:54:28;;;;;;;4.90;4.20;;;;;;;;;;5034847;28;20178;-47
2021/07/21 11:56:54;;;;;;;5.05;4.13;;;;;;;;;;5034158;28;20618;-48
2021/07/21 11:59:27;;;;;;;6.05;3.70;;;;;;;;;;5034168;28;20219;-47
2021/07/21 12:02:02;;;;;;;5.40;4.15;;;;;;;;;;5034789;28;20164;-47
2021/07/21 12:04:30;;;;;;;6.28;4.13;;;;;;;;;;5034102;28;20198;-48
2021/07/21 12:06:56;;;;;;;5.60;4.13;;;;;;;;;;5033836;28;20187;-48
2021/07/21 12:09:26;;;;;;;6.60;3.80;;;;;;;;;;5034761;28;20191;-47
2021/07/21 12:11:56;;;;;;;4.43;3.83;;;;;;;;;;5034493;28;20172;-47
2021/07/21 12:14:23;;;;;;;4.35;3.95;;;;;;;;;;5033978;28;20188;-48
2021/07/21 12:16:49;;;;;;;6.40;4.45;;;;;;;;;;5034902;28;20203;-47
2021/07/21 12:19:15;;;;;;;5.15;3.90;;;;;;;;;;5033406;28;20187;-48
2021/07/21 12:21:41;;;;;;;4.15;3.75;;;;;;;;;;5034468;28;20183;-47
2021/07/21 12:24:09;;;;;;;4.30;3.85;;;;;;;;;;5034476;28;20172;-47
2021/07/21 12:26:45;;;;;;;5.60;3.70;;;;;;;;;;5033778;28;20183;-47
2021/07/21 12:29:11;;;;;;;4.80;4.35;;;;;;;;;;5034062;28;20447;-47
2021/07/21 12:31:38;;;;;;;4.00;3.60;;;;;;;;;;5034226;28;20498;-48
2021/07/21 12:34:30;;;;;;;4.85;4.20;;;;;;;;;;5034324;28;20555;-48
2021/07/21 12:36:56;;;;;;;4.95;3.92;;;;;;;;;;5022731;28;20438;-48
2021/07/21 12:39:26;;;;;;;4.32;3.92;;;;;;;;;;5031995;28;20190;-47
2021/07/21 12:41:53;;;;;;;6.00;4.00;;;;;;;;;;5029820;28;20182;-47
2021/07/21 12:44:26;;;;;;;4.25;3.85;;;;;;;;;;5032345;28;20210;-47
2021/07/21 12:47:08;;;;;;;6.80;3.85;;;;;;;;;;5032440;28;20191;-47
2021/07/21 12:49:34;;;;;;;7.75;4.05;;;;;;;;;;5040553;28;20191;-47
2021/07/21 12:52:00;;;;;;;8.13;4.28;;;;;;;;;;5034163;28;20184;-47
2021/07/21 12:54:26;;;;;;;6.68;4.10;;;;;;;;;;5033864;28;20187;-48
2021/07/21 12:56:52;;;;;;;4.43;3.97;;;;;;;;;;5033554;28;20199;-47
2021/07/21 12:59:18;;;;;;;5.97;3.60;;;;;;;;;;5033724;28;20606;-47
2021/07/21 13:01:44;;;;;;;4.97;3.88;;;;;;;;;;5033852;28;20168;-47
2021/07/21 13:04:10;;;;;;;5.55;4.43;;;;;;;;;;5032509;28;20183;-48
2021/07/21 13:06:36;;;;;;;4.90;4.03;;;;;;;;;;5026967;28;20190;-48
2021/07/21 13:09:05;;;;;;;6.97;4.15;;;;;;;;;;5025358;28;20180;-47
2021/07/21 13:11:32;;;;;;;7.50;3.95;;;;;;;;;;5019078;28;20259;-47
2021/07/21 13:14:00;;;;;;;4.25;3.85;;;;;;;;;;5033632;28;20226;-47
2021/07/21 13:16:33;;;;;;;6.68;4.35;;;;;;;;;;5030563;28;20195;-48
2021/07/21 13:19:10;;;;;;;6.85;4.22;;;;;;;;;;5029817;28;20255;-47
2021/07/21 13:21:38;;;;;;;8.18;3.83;;;;;;;;;;5028769;28;20742;-47
2021/07/21 13:24:07;;;;;;;5.38;3.85;;;;;;;;;;5028192;28;20223;-47
2021/07/21 13:26:33;;;;;;;5.65;4.03;;;;;;;;;;5029289;28;20223;-47
2021/07/21 13:29:02;;;;;;;6.10;4.38;;;;;;;;;;5034183;28;20176;-48
2021/07/21 13:31:39;;;;;;;4.57;3.95;;;;;;;;;;5037561;28;20233;-47
2021/07/21 13:34:20;;;;;;;4.72;3.85;;;;;;;;;;5036928;28;20183;-47
2021/07/21 13:36:46;;;;;;;4.25;3.83;;;;;;;;;;5036582;28;20226;-47
2021/07/21 13:39:13;;;;;;;7.00;4.45;;;;;;;;;;5037875;28;20436;-47
2021/07/21 13:41:42;;;;;;;5.20;3.83;;;;;;;;;;5037091;28;20254;-48
2021/07/21 13:44:09;;;;;;;5.05;4.10;;;;;;;;;;5037268;28;20160;-48
2021/07/21 13:46:36;;;;;;;5.00;4.05;;;;;;;;;;5036709;28;20179;-47
2021/07/21 13:49:04;;;;;;;5.10;4.38;;;;;;;;;;5035222;28;20242;-48
2021/07/21 13:51:34;;;;;;;4.70;4.15;;;;;;;;;;5035472;28;20176;-47
2021/07/21 13:54:09;;;;;;;6.00;4.07;;;;;;;;;;5035388;28;20737;-47
2021/07/21 13:56:36;;;;;;;4.50;4.00;;;;;;;;;;5031709;28;20206;-47
2021/07/21 13:59:02;;;;;;;4.55;3.80;;;;;;;;;;5034991;28;20475;-47
2021/07/21 14:01:28;;;;;;;5.03;3.80;;;;;;;;;;5031305;28;20180;-48
2021/07/21 14:03:58;;;;;;;5.40;4.13;;;;;;;;;;5035443;28;20230;-47
2021/07/21 14:06:24;;;;;;;4.88;4.13;;;;;;;;;;5035579;28;20246;-47
2021/07/21 14:08:50;;;;;;;4.60;4.20;;;;;;;;;;5036613;28;20192;-47
2021/07/21 14:11:16;;;;;;;5.00;4.50;;;;;;;;;;5034911;28;20176;-47
2021/07/21 14:13:42;;;;;;;5.03;4.53;;;;;;;;;;5035864;28;20291;-48
2021/07/21 14:16:08;;;;;;;5.47;4.57;;;;;;;;;;5035772;28;20208;-47
2021/07/21 14:18:34;;;;;;;5.57;4.60;;;;;;;;;;5036513;28;20222;-47
2021/07/21 14:21:00;;;;;;;4.53;4.10;;;;;;;;;;5035277;28;20180;-47
2021/07/21 14:23:26;;;;;;;5.30;4.80;;;;;;;;;;5028847;28;20185;-48
2021/07/21 14:25:52;;;;;;;4.82;4.32;;;;;;;;;;5024043;28;20270;-47
2021/07/21 14:28:18;;;;;;;5.57;4.35;;;;;;;;;;5023219;28;20495;-47
2021/07/21 14:30:44;;;;;;;6.15;4.20;;;;;;;;;;5032157;28;20180;-47
2021/07/21 14:33:10;;;;;;;5.13;4.65;;;;;;;;;;5035842;28;20237;-47
2021/07/21 14:35:37;;;;;;;6.93;4.65;;;;;;;;;;5034398;28;20499;-47
2021/07/21 14:38:03;;;;;;;6.18;4.78;;;;;;;;;;5032870;28;20192;-47
2021/07/21 14:40:30;;;;;;;6.40;5.47;;;;;;;;;;5027163;28;20551;-47
2021/07/21 14:42:56;;;;;;;7.85;5.53;;;;;;;;;;5036361;28;20172;-47
2021/07/21 14:45:22;;;;;;;7.78;5.32;;;;;;;;;;5031892;28;20180;-47
2021/07/21 14:47:48;;;;;;;12.10;5.88;;;;;;;;;;5028939;28;20267;-47
2021/07/21 14:50:14;;;;;;;6.78;5.70;;;;;;;;;;5035647;28;20452;-47
2021/07/21 14:52:40;;;;;;;10.82;6.40;;;;;;;;;;5036155;28;20194;-47
2021/07/21 14:55:07;;;;;;;6.78;6.13;;;;;;;;;;5031646;28;20187;-47
2021/07/21 14:57:33;;;;;;;7.60;5.97;;;;;;;;;;5034236;28;20233;-47